Portada
METAR-TAF:

METAR-TAF

Aeropuertos :

Aeropuerto Internacional de San Fernando

San Fernando, Argentina

latitud: 34-27-11S, longitud: 058-35-23W, altitud: 3 m

Observación

El informe se hizo hace 24 minutos, a las 02:00 UTC
Viento calma
Temperatura 11°C
Humedad 82%
Presión 1024 hPa
Visibilidad 10 km o más
sin nubes por debajo de 1500 m y sin presencia de cumulonimbus.

METAR: SADF 240200Z 00000KT CAVOK 11/08 Q1024

Hora: 23:24 (02:24 UTC)

Pronóstico

El informe se hizo hace 3 horas y 24 minutos, a las 23:00 UTC
Pronóstico válido del 24 a las 00 UTC al 24 a las 24 UTC
Viento 3 kt con dirección variable
Visibilidad 10 km o más
sin nubes por debajo de 1500 m y sin presencia de cumulonimbus.
Evolucionando progresivamente
del 24 a las 16 UTC al 24 a las 18 UTC
Viento 10 kt del norte

TAF: SADF 232300Z 2400/2424 VRB03KT CAVOK TX19/2418Z TN08/2411Z BECMG 2416/2418 36010KT

Observaciones y pronósticos meteorológicos de más de 4000 aeropuertos (mensajes METAR y TAF).

Los puntos amarillos y rojos representan las estaciones disponibles.

Ponga el ratón en el punto deseado para ver el nombre de la estación.

Haga clic para ver las observaciones y los pronósticos meteorológicos.

Para cambiar el mapa : haga clic en los botones verdes con una cruz de color negro para hacer un zoom, en el botón verde con un guión para alejar o en las flechas verdes para mapas adyacentes.


METAR-TAF: